createdAt,value
2019-02-02T00:00:41.394Z,99.99
2019-02-02T00:01:41.382Z,99.99
2019-02-02T00:02:41.362Z,99.99
2019-02-02T00:03:41.341Z,99.99
2019-02-02T00:04:41.327Z,99.99
2019-02-02T00:05:41.318Z,99.99
2019-02-02T00:06:41.289Z,99.99
2019-02-02T00:07:41.271Z,99.99
2019-02-02T00:08:41.258Z,99.99
2019-02-02T00:09:41.238Z,99.99
2019-02-02T00:10:41.221Z,99.99
2019-02-02T00:11:41.205Z,99.99
2019-02-02T00:12:41.185Z,99.99
2019-02-02T00:13:41.164Z,99.99
2019-02-02T00:14:41.154Z,99.99
2019-02-02T00:15:41.135Z,99.99
2019-02-02T00:16:41.112Z,99.99
2019-02-02T00:17:41.097Z,99.99
2019-02-02T00:18:41.094Z,99.99
2019-02-02T00:19:41.067Z,99.99
2019-02-02T00:20:41.050Z,99.99
2019-02-02T00:21:41.029Z,99.99
2019-02-02T00:22:41.010Z,99.99
2019-02-02T00:23:40.996Z,99.99
2019-02-02T00:24:41.114Z,99.99
2019-02-02T00:25:40.955Z,99.99
2019-02-02T00:26:40.943Z,99.99
2019-02-02T00:27:41.810Z,99.99
2019-02-02T00:28:40.907Z,99.99
2019-02-02T00:29:40.895Z,99.99
2019-02-02T00:30:40.876Z,99.99
2019-02-02T00:31:40.861Z,99.99
2019-02-02T00:32:40.838Z,99.99
2019-02-02T00:33:40.821Z,99.99
2019-02-02T00:34:40.801Z,99.99
2019-02-02T00:35:40.793Z,99.99
2019-02-02T00:36:40.769Z,99.99
2019-02-02T00:37:40.752Z,99.99
2019-02-02T00:38:40.754Z,99.99
2019-02-02T00:39:40.724Z,99.99
2019-02-02T00:40:40.704Z,99.99
2019-02-02T00:41:40.684Z,99.99
2019-02-02T00:42:40.664Z,99.99
2019-02-02T00:43:40.669Z,99.99
2019-02-02T00:44:40.642Z,99.99
2019-02-02T00:45:40.610Z,99.99
2019-02-02T00:46:40.593Z,99.99
2019-02-02T00:47:40.579Z,99.99
2019-02-02T00:48:40.562Z,99.99
2019-02-02T00:49:40.543Z,99.99
2019-02-02T00:50:40.528Z,99.99
2019-02-02T00:51:40.507Z,99.99
2019-02-02T00:52:40.491Z,99.99
2019-02-02T00:53:40.485Z,99.99
2019-02-02T00:54:40.458Z,99.99
2019-02-02T00:55:40.442Z,99.99
2019-02-02T00:56:40.425Z,99.99
2019-02-02T00:57:40.406Z,99.99
2019-02-02T00:58:40.409Z,99.99
2019-02-02T00:59:40.368Z,99.99
2019-02-02T01:00:40.348Z,99.99
2019-02-02T01:01:40.334Z,99.99
2019-02-02T01:02:40.320Z,99.99
2019-02-02T01:03:40.300Z,99.99
2019-02-02T01:04:40.285Z,99.99
2019-02-02T01:05:40.268Z,99.99
2019-02-02T01:06:40.247Z,99.99
2019-02-02T01:07:40.236Z,99.99
2019-02-02T01:08:40.216Z,99.99
2019-02-02T01:09:40.196Z,99.99
2019-02-02T01:10:40.174Z,99.99
2019-02-02T01:11:40.162Z,99.99
2019-02-02T01:12:40.146Z,99.99
2019-02-02T01:13:40.138Z,99.99
2019-02-02T01:14:40.114Z,99.99
2019-02-02T01:15:40.099Z,99.99
2019-02-02T01:16:40.074Z,99.99
2019-02-02T01:17:40.054Z,99.99
2019-02-02T01:18:40.056Z,99.99
2019-02-02T01:19:40.017Z,99.99
2019-02-02T01:20:40.007Z,99.99
2019-02-02T01:21:39.989Z,99.99
2019-02-02T01:22:39.969Z,99.99
2019-02-02T01:23:39.951Z,99.99
2019-02-02T01:24:39.937Z,99.99
2019-02-02T01:25:39.920Z,99.99
2019-02-02T01:26:39.902Z,99.99
2019-02-02T01:27:39.889Z,99.99
2019-02-02T01:28:39.866Z,99.99
2019-02-02T01:29:39.844Z,99.99
2019-02-02T01:30:39.828Z,99.99
2019-02-02T01:31:39.822Z,99.99
2019-02-02T01:32:39.804Z,99.99
2019-02-02T01:33:39.775Z,99.99
2019-02-02T01:34:39.794Z,99.99
2019-02-02T01:35:39.739Z,99.99
2019-02-02T01:36:39.723Z,99.99
2019-02-02T01:37:39.707Z,99.99
2019-02-02T01:38:39.693Z,99.99
2019-02-02T01:39:39.680Z,99.99
2019-02-02T01:40:39.655Z,99.99
2019-02-02T01:41:39.640Z,99.99
2019-02-02T01:42:39.616Z,99.99
2019-02-02T01:43:39.604Z,99.99
2019-02-02T01:44:39.585Z,99.99
2019-02-02T01:45:39.570Z,99.99
2019-02-02T01:46:39.550Z,99.99
2019-02-02T01:47:39.534Z,99.99
2019-02-02T01:48:39.517Z,99.99
2019-02-02T01:49:39.493Z,99.99
2019-02-02T01:50:39.477Z,99.99
2019-02-02T01:51:39.459Z,99.99
2019-02-02T01:52:39.447Z,99.99
2019-02-02T01:53:39.550Z,99.99
2019-02-02T01:54:39.410Z,99.99
2019-02-02T01:55:39.395Z,99.99
2019-02-02T01:56:39.374Z,99.99
2019-02-02T01:57:39.357Z,99.99
2019-02-02T01:58:39.343Z,99.99
2019-02-02T01:59:39.329Z,99.99
2019-02-02T02:00:39.303Z,99.99
2019-02-02T02:01:41.632Z,99.99
2019-02-02T02:02:39.271Z,99.99
2019-02-02T02:03:39.255Z,99.99
2019-02-02T02:04:39.240Z,99.99
2019-02-02T02:05:39.216Z,99.99
2019-02-02T02:06:39.203Z,99.99
2019-02-02T02:07:39.186Z,99.99
2019-02-02T02:08:39.165Z,99.99
2019-02-02T02:09:39.149Z,99.99
2019-02-02T02:10:39.130Z,99.99
2019-02-02T02:11:39.119Z,99.99
2019-02-02T02:12:39.099Z,99.99
2019-02-02T02:13:39.082Z,99.99
2019-02-02T02:14:39.062Z,99.99
2019-02-02T02:15:39.047Z,99.99
2019-02-02T02:16:39.028Z,99.99
2019-02-02T02:17:39.010Z,99.99
2019-02-02T02:18:38.988Z,99.99
2019-02-02T02:19:38.983Z,99.99
2019-02-02T02:20:38.956Z,99.99
2019-02-02T02:21:38.939Z,99.99
2019-02-02T02:22:41.146Z,99.99
2019-02-02T02:23:38.905Z,99.99
2019-02-02T02:24:38.887Z,99.99
2019-02-02T02:25:38.873Z,99.99
2019-02-02T02:26:38.853Z,99.99
2019-02-02T02:27:38.842Z,99.99
2019-02-02T02:28:38.822Z,99.99
2019-02-02T02:29:38.796Z,99.99
2019-02-02T02:30:38.784Z,99.99
2019-02-02T02:31:38.768Z,99.99
2019-02-02T02:32:38.753Z,99.99
2019-02-02T02:33:38.734Z,99.99
2019-02-02T02:34:38.712Z,99.99
2019-02-02T02:35:38.703Z,99.99
2019-02-02T02:36:38.682Z,99.99
2019-02-02T02:37:38.661Z,99.99
2019-02-02T02:38:38.639Z,99.99
2019-02-02T02:39:38.629Z,99.99
2019-02-02T02:40:38.611Z,99.99
2019-02-02T02:41:38.594Z,99.99
2019-02-02T02:42:38.571Z,99.99
2019-02-02T02:43:38.563Z,99.99
2019-02-02T02:44:38.547Z,99.99
2019-02-02T02:45:38.526Z,99.99
2019-02-02T02:46:38.509Z,99.99
2019-02-02T02:47:38.495Z,99.99
2019-02-02T02:48:38.477Z,99.99
2019-02-02T02:49:38.456Z,99.99
2019-02-02T02:50:38.436Z,99.99
2019-02-02T02:51:38.424Z,99.99
2019-02-02T02:52:38.400Z,99.99
2019-02-02T02:53:38.386Z,99.99
2019-02-02T02:54:38.371Z,99.99
2019-02-02T02:55:38.356Z,99.99
2019-02-02T02:56:38.333Z,99.99
2019-02-02T02:57:38.318Z,99.99
2019-02-02T02:58:41.703Z,99.99
2019-02-02T02:59:38.286Z,99.99
2019-02-02T03:00:38.261Z,99.99
2019-02-02T03:01:38.245Z,99.99
2019-02-02T03:02:38.236Z,99.99
2019-02-02T03:03:38.218Z,99.99
2019-02-02T03:04:38.198Z,99.99
2019-02-02T03:05:38.179Z,99.99
2019-02-02T03:06:38.160Z,99.99
2019-02-02T03:07:38.147Z,99.99
2019-02-02T03:08:38.127Z,99.99
2019-02-02T03:09:38.113Z,99.99
2019-02-02T03:10:38.095Z,99.99
2019-02-02T03:11:38.078Z,99.99
2019-02-02T03:12:38.064Z,99.99
2019-02-02T03:13:38.042Z,99.99
2019-02-02T03:14:38.022Z,99.99
2019-02-02T03:15:38.006Z,99.99
2019-02-02T03:16:37.987Z,99.99
2019-02-02T03:17:37.982Z,99.99
2019-02-02T03:18:37.965Z,99.99
2019-02-02T03:19:37.941Z,99.99
2019-02-02T03:20:37.931Z,99.99
2019-02-02T03:21:37.895Z,99.99
2019-02-02T03:22:37.883Z,99.99
2019-02-02T03:23:37.864Z,99.99
2019-02-02T03:24:37.866Z,99.99
2019-02-02T03:25:37.844Z,99.99
2019-02-02T03:26:37.818Z,99.99
2019-02-02T03:27:37.797Z,99.99
2019-02-02T03:28:37.784Z,99.99
2019-02-02T03:29:37.767Z,99.99
2019-02-02T03:30:37.747Z,99.99
2019-02-02T03:31:37.735Z,99.99
2019-02-02T03:32:37.717Z,99.99
2019-02-02T03:33:37.697Z,99.99
2019-02-02T03:34:37.679Z,99.99
2019-02-02T03:35:37.664Z,99.99
2019-02-02T03:36:37.646Z,99.99
2019-02-02T03:37:37.641Z,99.99
2019-02-02T03:38:37.609Z,99.99
2019-02-02T03:39:37.593Z,99.99
2019-02-02T03:40:37.578Z,99.99
2019-02-02T03:41:37.558Z,99.99
2019-02-02T03:42:37.540Z,99.99
2019-02-02T03:43:37.527Z,99.99
2019-02-02T03:44:37.506Z,99.99
2019-02-02T03:45:40.652Z,99.99
2019-02-02T03:46:37.473Z,99.99
2019-02-02T03:47:37.454Z,99.99
2019-02-02T03:48:37.435Z,99.99
2019-02-02T03:49:37.416Z,99.99
2019-02-02T03:50:37.403Z,99.99
2019-02-02T03:51:37.389Z,99.99
2019-02-02T03:52:37.377Z,99.99
2019-02-02T03:53:37.348Z,99.99
2019-02-02T03:54:37.336Z,99.99
2019-02-02T03:55:37.314Z,99.99
2019-02-02T03:56:37.294Z,99.99
2019-02-02T03:57:37.283Z,99.99
2019-02-02T03:58:37.265Z,99.99
2019-02-02T03:59:37.253Z,99.99
2019-02-02T04:00:37.228Z,99.99
2019-02-02T04:01:37.208Z,99.99
2019-02-02T04:02:37.204Z,99.99
2019-02-02T04:03:37.177Z,99.99
2019-02-02T04:04:37.161Z,99.99
2019-02-02T04:05:37.141Z,99.99
2019-02-02T04:06:37.129Z,99.99
2019-02-02T04:07:37.110Z,99.99
2019-02-02T04:08:37.090Z,99.99
2019-02-02T04:09:37.074Z,99.99
2019-02-02T04:10:37.052Z,99.99
2019-02-02T04:11:37.040Z,99.99
2019-02-02T04:12:37.022Z,99.99
2019-02-02T04:13:37.000Z,99.99
2019-02-02T04:14:36.987Z,99.99
2019-02-02T04:15:36.962Z,99.99
2019-02-02T04:16:36.951Z,99.99
2019-02-02T04:17:36.932Z,99.99
2019-02-02T04:18:36.914Z,99.99
2019-02-02T04:19:36.898Z,99.99
2019-02-02T04:20:36.884Z,99.99
2019-02-02T04:21:36.868Z,99.99
2019-02-02T04:22:36.845Z,99.99
2019-02-02T04:23:36.831Z,99.99
2019-02-02T04:24:36.809Z,99.99
2019-02-02T04:25:36.795Z,99.99
2019-02-02T04:26:36.774Z,99.99
2019-02-02T04:27:36.760Z,99.99
2019-02-02T04:28:36.746Z,99.99
2019-02-02T04:29:36.726Z,99.99
2019-02-02T04:30:36.706Z,99.99
2019-02-02T04:31:36.694Z,99.99
2019-02-02T04:32:36.674Z,99.99
2019-02-02T04:33:36.654Z,99.99
2019-02-02T04:34:36.640Z,99.99
2019-02-02T04:35:36.619Z,99.99
2019-02-02T04:36:36.606Z,99.99
2019-02-02T04:37:38.290Z,99.99
2019-02-02T04:38:36.567Z,99.99
2019-02-02T04:39:36.551Z,99.99
2019-02-02T04:40:36.536Z,99.99
2019-02-02T04:41:36.513Z,99.99
2019-02-02T04:42:36.503Z,99.99
2019-02-02T04:43:36.485Z,99.99
2019-02-02T04:44:36.467Z,99.99
2019-02-02T04:45:36.449Z,99.99
2019-02-02T04:46:36.432Z,99.99
2019-02-02T04:47:36.418Z,99.99
2019-02-02T04:48:36.398Z,99.99
2019-02-02T04:49:36.375Z,99.99
2019-02-02T04:50:36.365Z,99.99
2019-02-02T04:51:36.347Z,99.99
2019-02-02T04:52:36.375Z,99.99
2019-02-02T04:53:36.311Z,99.99
2019-02-02T04:54:36.296Z,99.99
2019-02-02T04:55:36.278Z,99.99
2019-02-02T04:56:36.255Z,99.99
2019-02-02T04:57:36.236Z,99.99
2019-02-02T04:58:36.226Z,99.99
2019-02-02T04:59:36.208Z,99.99
2019-02-02T05:00:36.188Z,99.99
2019-02-02T05:01:36.167Z,99.99
2019-02-02T05:02:36.153Z,99.99
2019-02-02T05:03:36.137Z,99.99
2019-02-02T05:04:36.121Z,99.99
2019-02-02T05:05:36.097Z,99.99
2019-02-02T05:06:42.949Z,99.99
2019-02-02T05:07:36.067Z,99.99
2019-02-02T05:08:36.067Z,99.99
2019-02-02T05:09:36.028Z,99.99
2019-02-02T05:10:36.018Z,99.99
2019-02-02T05:11:35.997Z,99.99
2019-02-02T05:12:35.985Z,99.99
2019-02-02T05:13:35.971Z,99.99
2019-02-02T05:14:35.942Z,99.99
2019-02-02T05:15:35.926Z,99.99
2019-02-02T05:16:35.914Z,99.99
2019-02-02T05:17:35.899Z,99.99
2019-02-02T05:18:35.875Z,99.99
2019-02-02T05:19:35.861Z,99.99
2019-02-02T05:20:35.845Z,99.99
2019-02-02T05:21:35.832Z,99.99
2019-02-02T05:22:35.808Z,99.99
2019-02-02T05:23:35.788Z,99.99
2019-02-02T05:24:35.797Z,99.99
2019-02-02T05:25:35.754Z,99.99
2019-02-02T05:26:35.736Z,99.99
2019-02-02T05:27:35.721Z,99.99
2019-02-02T05:28:35.707Z,99.99
2019-02-02T05:29:41.643Z,99.99
2019-02-02T05:30:35.668Z,99.99
2019-02-02T05:31:35.643Z,99.99
2019-02-02T05:32:35.633Z,99.99
2019-02-02T05:33:35.616Z,99.99
2019-02-02T05:34:35.602Z,99.99
2019-02-02T05:35:35.586Z,99.99
2019-02-02T05:36:35.566Z,99.99
2019-02-02T05:37:35.553Z,99.99
2019-02-02T05:38:35.531Z,99.99
2019-02-02T05:39:35.512Z,99.99
2019-02-02T05:40:35.494Z,99.99
2019-02-02T05:41:35.479Z,99.99
2019-02-02T05:42:35.458Z,99.99
2019-02-02T05:43:35.441Z,99.99
2019-02-02T05:44:35.428Z,99.99
2019-02-02T05:45:35.408Z,99.99
2019-02-02T05:46:35.387Z,99.99
2019-02-02T05:47:35.365Z,99.99
2019-02-02T05:48:35.353Z,99.99
2019-02-02T05:49:35.337Z,99.99
2019-02-02T05:50:35.324Z,99.99
2019-02-02T05:51:35.300Z,99.99
2019-02-02T05:52:35.286Z,99.99
2019-02-02T05:53:35.268Z,99.99
2019-02-02T05:54:35.249Z,99.99
2019-02-02T05:55:35.231Z,99.99
2019-02-02T05:56:35.215Z,99.99
2019-02-02T05:57:35.194Z,99.99
2019-02-02T05:58:35.178Z,99.99
2019-02-02T05:59:35.164Z,99.99
2019-02-02T06:00:35.144Z,99.99
2019-02-02T06:01:35.130Z,99.99
2019-02-02T06:02:35.109Z,99.99
2019-02-02T06:03:35.091Z,99.99
2019-02-02T06:04:35.076Z,99.99
2019-02-02T06:05:35.059Z,99.99
2019-02-02T06:06:35.039Z,99.99
2019-02-02T06:07:35.023Z,99.99
2019-02-02T06:08:35.003Z,99.99
2019-02-02T06:09:34.983Z,99.99
2019-02-02T06:10:34.967Z,99.99
2019-02-02T06:11:34.955Z,99.99
2019-02-02T06:12:34.937Z,99.99
2019-02-02T06:13:34.915Z,99.99
2019-02-02T06:14:34.900Z,99.99
2019-02-02T06:15:34.886Z,99.99
2019-02-02T06:16:34.870Z,99.99
2019-02-02T06:17:34.850Z,99.99
2019-02-02T06:18:34.832Z,99.99
2019-02-02T06:19:34.818Z,99.99
2019-02-02T06:20:34.794Z,99.99
2019-02-02T06:21:34.781Z,99.99
2019-02-02T06:22:34.765Z,99.99
2019-02-02T06:23:34.757Z,99.99
2019-02-02T06:24:34.729Z,99.99
2019-02-02T06:25:34.723Z,99.99
2019-02-02T06:26:34.689Z,99.99
2019-02-02T06:27:34.671Z,99.99
2019-02-02T06:28:34.655Z,99.99
2019-02-02T06:29:34.637Z,99.99
2019-02-02T06:30:34.621Z,99.99
2019-02-02T06:31:34.614Z,99.99
2019-02-02T06:32:34.589Z,99.99
2019-02-02T06:33:34.572Z,99.99
2019-02-02T06:34:34.567Z,99.99
2019-02-02T06:35:34.534Z,99.99
2019-02-02T06:36:34.518Z,99.99
2019-02-02T06:37:34.495Z,99.99
2019-02-02T06:38:34.481Z,99.99
2019-02-02T06:39:34.467Z,99.99
2019-02-02T06:40:34.449Z,99.99
2019-02-02T06:41:34.427Z,99.99
2019-02-02T06:42:34.413Z,99.99
2019-02-02T06:43:34.403Z,99.99
2019-02-02T06:44:34.377Z,99.99
2019-02-02T06:45:34.365Z,99.99
2019-02-02T06:46:43.236Z,99.99
2019-02-02T06:47:34.334Z,99.99
2019-02-02T06:48:34.306Z,99.99
2019-02-02T06:49:34.292Z,99.99
2019-02-02T06:50:34.275Z,99.99
2019-02-02T06:51:34.263Z,99.99
2019-02-02T06:52:34.238Z,99.99
2019-02-02T06:53:34.217Z,99.99
2019-02-02T06:54:34.204Z,99.99
2019-02-02T06:55:34.183Z,99.99
2019-02-02T06:56:34.180Z,99.99
2019-02-02T06:57:34.149Z,99.99
2019-02-02T06:58:34.142Z,99.99
2019-02-02T06:59:34.116Z,99.99
2019-02-02T07:00:34.107Z,99.99
2019-02-02T07:01:34.083Z,99.99
2019-02-02T07:02:34.122Z,99.99
2019-02-02T07:03:34.045Z,99.99
2019-02-02T07:04:34.033Z,99.99
2019-02-02T07:05:34.092Z,99.99
2019-02-02T07:06:34.001Z,99.99
2019-02-02T07:07:33.979Z,99.99
2019-02-02T07:08:33.959Z,99.99
2019-02-02T07:09:33.946Z,99.99
2019-02-02T07:10:33.925Z,99.99
2019-02-02T07:11:33.910Z,99.99
2019-02-02T07:12:33.893Z,99.99
2019-02-02T07:13:35.981Z,99.99
2019-02-02T07:14:33.862Z,99.99
2019-02-02T07:15:33.840Z,99.99
2019-02-02T07:16:33.821Z,99.99
2019-02-02T07:17:33.806Z,99.99
2019-02-02T07:18:33.788Z,99.99
2019-02-02T07:19:33.771Z,99.99
2019-02-02T07:20:33.866Z,99.99
2019-02-02T07:21:33.732Z,99.99
2019-02-02T07:22:33.833Z,99.99
2019-02-02T07:23:33.710Z,99.99
2019-02-02T07:24:33.683Z,99.99
2019-02-02T07:25:33.668Z,99.99
2019-02-02T07:26:33.654Z,99.99
2019-02-02T07:27:33.633Z,99.99
2019-02-02T07:28:33.617Z,99.99
2019-02-02T07:29:33.595Z,99.99
2019-02-02T07:30:33.579Z,99.99
2019-02-02T07:31:33.565Z,99.99
2019-02-02T07:32:33.546Z,99.99
2019-02-02T07:33:33.527Z,99.99
2019-02-02T07:34:33.507Z,99.99
2019-02-02T07:35:33.490Z,99.99
2019-02-02T07:36:33.482Z,99.99
2019-02-02T07:37:33.457Z,99.99
2019-02-02T07:38:33.439Z,99.99
2019-02-02T07:39:33.426Z,99.99
2019-02-02T07:40:33.416Z,99.99
2019-02-02T07:41:33.387Z,99.99
2019-02-02T07:42:33.374Z,99.99
2019-02-02T07:43:33.355Z,99.99
2019-02-02T07:44:33.335Z,99.99
2019-02-02T07:45:33.319Z,99.99
2019-02-02T07:46:33.305Z,99.99
2019-02-02T07:47:33.302Z,99.99
2019-02-02T07:48:33.271Z,99.99
2019-02-02T07:49:33.255Z,99.99
2019-02-02T07:50:33.242Z,99.99
2019-02-02T07:51:33.222Z,99.99
2019-02-02T07:52:33.201Z,99.99
2019-02-02T07:53:33.184Z,99.99
2019-02-02T07:54:33.319Z,99.99
2019-02-02T07:55:33.151Z,99.99
2019-02-02T07:56:33.134Z,99.99
2019-02-02T07:57:33.119Z,99.99
2019-02-02T07:58:33.092Z,99.99
2019-02-02T07:59:33.084Z,99.99
2019-02-02T08:00:40.990Z,99.99
2019-02-02T08:01:33.049Z,99.99
2019-02-02T08:02:33.030Z,99.99
2019-02-02T08:03:33.016Z,99.99
2019-02-02T08:04:32.994Z,99.99
2019-02-02T08:05:32.979Z,99.99
2019-02-02T08:06:32.962Z,99.99
2019-02-02T08:07:32.945Z,99.99
2019-02-02T08:08:32.948Z,99.99
2019-02-02T08:09:32.911Z,99.99
2019-02-02T08:10:32.893Z,99.99
2019-02-02T08:11:32.876Z,99.99
2019-02-02T08:12:32.857Z,99.99
2019-02-02T08:13:32.848Z,99.99
2019-02-02T08:14:32.833Z,99.72
2019-02-02T08:15:32.811Z,99.72
2019-02-02T08:16:32.792Z,99.34
2019-02-02T08:17:32.786Z,99.34
2019-02-02T08:18:32.758Z,98.68
2019-02-02T08:19:32.746Z,98.96
2019-02-02T08:20:32.737Z,99.34
2019-02-02T08:21:32.713Z,98.21
2019-02-02T08:22:32.690Z,98.21
2019-02-02T08:23:32.683Z,98.39
2019-02-02T08:24:32.661Z,98.21
2019-02-02T08:25:32.643Z,98.68
2019-02-02T08:26:32.626Z,97.83
2019-02-02T08:27:32.610Z,97.73
2019-02-02T08:28:32.595Z,97.45
2019-02-02T08:29:32.578Z,97.92
2019-02-02T08:30:35.534Z,97.83
2019-02-02T08:31:32.546Z,97.64
2019-02-02T08:32:32.532Z,97.92
2019-02-02T08:33:32.510Z,98.11
2019-02-02T08:34:32.495Z,98.39
2019-02-02T08:35:32.477Z,98.39
2019-02-02T08:36:32.463Z,98.58
2019-02-02T08:37:32.448Z,99.06
2019-02-02T08:38:32.426Z,98.87
2019-02-02T08:39:32.409Z,98.96
2019-02-02T08:40:32.391Z,99.06
2019-02-02T08:41:32.379Z,98.49
2019-02-02T08:42:32.361Z,98.58
2019-02-02T08:43:32.352Z,98.49
2019-02-02T08:44:32.332Z,98.58
2019-02-02T08:45:32.320Z,98.77
2019-02-02T08:46:32.295Z,98.39
2019-02-02T08:47:32.806Z,98.21
2019-02-02T08:48:32.261Z,98.49
2019-02-02T08:49:32.356Z,98.39
2019-02-02T08:50:32.229Z,98.49
2019-02-02T08:51:32.213Z,98.77
2019-02-02T08:52:32.189Z,98.58
2019-02-02T08:53:32.240Z,98.77
2019-02-02T08:54:32.162Z,98.21
2019-02-02T08:55:32.178Z,98.30
2019-02-02T08:56:32.177Z,98.49
2019-02-02T08:57:32.113Z,98.58
2019-02-02T08:58:32.095Z,98.39
2019-02-02T08:59:32.084Z,98.49
2019-02-02T09:00:32.065Z,98.58
2019-02-02T09:01:32.042Z,98.39
2019-02-02T09:02:32.031Z,98.68
2019-02-02T09:03:32.119Z,98.68
2019-02-02T09:04:32.006Z,98.30
2019-02-02T09:05:32.030Z,98.68
2019-02-02T09:06:39.065Z,98.02
2019-02-02T09:07:31.949Z,98.30
2019-02-02T09:08:31.945Z,98.30
2019-02-02T09:09:31.912Z,98.49
2019-02-02T09:10:31.901Z,98.49
2019-02-02T09:11:31.880Z,98.96
2019-02-02T09:12:31.864Z,98.96
2019-02-02T09:13:31.849Z,99.06
2019-02-02T09:14:31.828Z,99.34
2019-02-02T09:15:31.813Z,99.06
2019-02-02T09:16:31.797Z,99.29
2019-02-02T09:17:31.782Z,99.29
2019-02-02T09:18:31.773Z,99.77
2019-02-02T09:19:31.752Z,99.63
2019-02-02T09:20:31.733Z,99.77
2019-02-02T09:21:31.715Z,99.99
2019-02-02T09:22:31.695Z,99.99
2019-02-02T09:23:31.691Z,99.99
2019-02-02T09:24:31.667Z,99.99
2019-02-02T09:25:31.655Z,99.99
2019-02-02T09:26:31.629Z,99.99
2019-02-02T09:27:31.619Z,99.99
2019-02-02T09:28:31.601Z,99.99
2019-02-02T09:29:31.581Z,99.99
2019-02-02T09:30:31.561Z,99.72
2019-02-02T09:31:31.554Z,99.15
2019-02-02T09:32:31.535Z,98.02
2019-02-02T09:33:31.522Z,98.21
2019-02-02T09:34:31.504Z,98.02
2019-02-02T09:35:31.486Z,98.21
2019-02-02T09:36:31.481Z,98.21
2019-02-02T09:37:31.452Z,98.44
2019-02-02T09:38:31.441Z,98.58
2019-02-02T09:39:31.422Z,99.15
2019-02-02T09:40:31.412Z,99.72
2019-02-02T09:41:31.386Z,99.72
2019-02-02T09:42:31.366Z,99.15
2019-02-02T09:43:31.348Z,98.96
2019-02-02T09:44:31.333Z,98.49
2019-02-02T09:45:31.317Z,97.64
2019-02-02T09:46:31.305Z,97.45
2019-02-02T09:47:31.283Z,97.26
2019-02-02T09:48:31.278Z,97.16
2019-02-02T09:49:31.250Z,96.59
2019-02-02T09:50:31.232Z,96.12
2019-02-02T09:51:31.229Z,95.74
2019-02-02T09:52:31.195Z,95.55
2019-02-02T09:53:31.193Z,95.93
2019-02-02T09:54:31.169Z,95.65
2019-02-02T09:55:31.156Z,95.84
2019-02-02T09:56:31.139Z,95.74
2019-02-02T09:57:31.122Z,95.74
2019-02-02T09:58:31.107Z,95.55
2019-02-02T09:59:31.089Z,96.31
2019-02-02T10:00:31.112Z,96.69
2019-02-02T10:01:31.071Z,96.69
2019-02-02T10:02:31.046Z,96.59
2019-02-02T10:03:31.023Z,96.78
2019-02-02T10:04:31.001Z,96.03
2019-02-02T10:05:30.993Z,95.84
2019-02-02T10:06:30.973Z,95.79
2019-02-02T10:07:30.958Z,96.08
2019-02-02T10:08:30.939Z,95.03
2019-02-02T10:09:30.920Z,95.69
2019-02-02T10:10:30.911Z,95.03
2019-02-02T10:11:30.887Z,94.56
2019-02-02T10:12:30.878Z,93.89
2019-02-02T10:13:30.859Z,93.70
2019-02-02T10:14:30.841Z,93.32
2019-02-02T10:15:30.826Z,93.23
2019-02-02T10:16:30.809Z,93.04
2019-02-02T10:17:30.800Z,93.04
2019-02-02T10:18:30.788Z,92.47
2019-02-02T10:19:30.768Z,92.18
2019-02-02T10:20:30.747Z,92.57
2019-02-02T10:21:30.729Z,92.47
2019-02-02T10:22:30.731Z,92.47
2019-02-02T10:23:30.699Z,91.99
2019-02-02T10:24:30.681Z,91.99
2019-02-02T10:25:30.662Z,92.09
2019-02-02T10:26:30.647Z,92.66
2019-02-02T10:27:30.629Z,92.14
2019-02-02T10:28:30.637Z,92.71
2019-02-02T10:29:30.597Z,92.33
2019-02-02T10:30:30.584Z,93.18
2019-02-02T10:31:39.252Z,93.18
2019-02-02T10:32:30.553Z,93.23
2019-02-02T10:33:30.542Z,92.61
2019-02-02T10:34:30.517Z,92.38
2019-02-02T10:35:30.497Z,92.66
2019-02-02T10:36:30.487Z,92.76
2019-02-02T10:37:30.475Z,92.28
2019-02-02T10:38:30.456Z,92.66
2019-02-02T10:39:30.437Z,92.28
2019-02-02T10:40:30.502Z,91.61
2019-02-02T10:41:31.515Z,92.28
2019-02-02T10:42:30.394Z,91.52
2019-02-02T10:43:30.381Z,91.52
2019-02-02T10:44:30.361Z,91.52
2019-02-02T10:45:30.340Z,91.33
2019-02-02T10:46:30.322Z,91.33
2019-02-02T10:47:30.353Z,91.90
2019-02-02T10:48:30.298Z,91.24
2019-02-02T10:49:30.280Z,90.95
2019-02-02T10:50:30.259Z,90.67
2019-02-02T10:51:30.242Z,90.38
2019-02-02T10:52:30.229Z,90.29
2019-02-02T10:53:30.211Z,90.38
2019-02-02T10:54:30.198Z,90.57
2019-02-02T10:55:30.211Z,90.38
2019-02-02T10:56:30.163Z,90.52
2019-02-02T10:57:30.147Z,90.14
2019-02-02T10:58:30.201Z,89.95
2019-02-02T10:59:30.119Z,90.14
2019-02-02T11:00:30.100Z,89.95
2019-02-02T11:01:30.080Z,89.29
2019-02-02T11:02:30.068Z,88.81
2019-02-02T11:03:30.048Z,89.10
2019-02-02T11:04:30.168Z,89.29
2019-02-02T11:05:30.020Z,89.10
2019-02-02T11:06:30.164Z,88.81
2019-02-02T11:07:30.009Z,88.72
2019-02-02T11:08:30.005Z,88.43
2019-02-02T11:09:29.979Z,88.15
2019-02-02T11:10:29.964Z,88.53
2019-02-02T11:11:29.925Z,88.06
2019-02-02T11:12:29.925Z,88.43
2019-02-02T11:13:29.895Z,88.81
2019-02-02T11:14:30.023Z,88.81
2019-02-02T11:15:29.910Z,89.10
2019-02-02T11:16:29.852Z,88.81
2019-02-02T11:17:29.984Z,88.91
2019-02-02T11:18:29.829Z,89.10
2019-02-02T11:19:29.969Z,88.62
2019-02-02T11:20:29.834Z,88.91
2019-02-02T11:21:29.767Z,88.91
2019-02-02T11:22:29.764Z,89.10
2019-02-02T11:23:29.790Z,88.86
2019-02-02T11:24:29.721Z,88.01
2019-02-02T11:25:29.765Z,87.72
2019-02-02T11:26:29.736Z,86.87
2019-02-02T11:27:29.681Z,86.11
2019-02-02T11:28:29.696Z,85.82
2019-02-02T11:29:29.737Z,85.86
2019-02-02T11:30:29.639Z,85.49
2019-02-02T11:31:29.615Z,85.49
2019-02-02T11:32:29.599Z,84.53
2019-02-02T11:33:29.623Z,83.97
2019-02-02T11:34:29.572Z,82.82
2019-02-02T11:35:29.637Z,83.45
2019-02-02T11:36:29.546Z,84.68
2019-02-02T11:37:29.528Z,84.87
2019-02-02T11:38:29.503Z,85.16
2019-02-02T11:39:29.494Z,84.91
2019-02-02T11:40:29.477Z,85.77
2019-02-02T11:41:29.461Z,85.39
2019-02-02T11:42:29.447Z,85.16
2019-02-02T11:43:29.426Z,85.06
2019-02-02T11:44:29.418Z,86.20
2019-02-02T11:45:29.401Z,85.49
2019-02-02T11:46:29.395Z,84.91
2019-02-02T11:47:29.375Z,84.10
2019-02-02T11:48:29.361Z,82.87
2019-02-02T11:49:29.342Z,81.82
2019-02-02T11:50:29.324Z,81.86
2019-02-02T11:51:29.310Z,81.01
2019-02-02T11:52:29.298Z,79.52
2019-02-02T11:53:29.282Z,79.72
2019-02-02T11:54:29.275Z,78.48
2019-02-02T11:55:29.249Z,78.00
2019-02-02T11:56:29.238Z,77.91
2019-02-02T11:57:29.229Z,77.62
2019-02-02T11:58:29.215Z,77.34
2019-02-02T11:59:29.202Z,76.86
2019-02-02T12:00:29.185Z,76.96
2019-02-02T12:01:29.184Z,78.23
2019-02-02T12:02:29.158Z,77.56
2019-02-02T12:03:29.140Z,77.28
2019-02-02T12:04:29.129Z,75.32
2019-02-02T12:05:29.112Z,73.66
2019-02-02T12:06:29.096Z,75.04
2019-02-02T12:07:29.090Z,74.84
2019-02-02T12:08:29.080Z,73.66
2019-02-02T12:09:29.062Z,73.89
2019-02-02T12:10:29.046Z,75.13
2019-02-02T12:11:29.034Z,74.08
2019-02-02T12:12:29.021Z,73.83
2019-02-02T12:13:29.006Z,71.55
2019-02-02T12:14:29.032Z,72.31
2019-02-02T12:15:28.982Z,71.73
2019-02-02T12:16:29.069Z,71.11
2019-02-02T12:17:28.950Z,69.96
2019-02-02T12:18:28.937Z,69.58
2019-02-02T12:19:28.924Z,68.15
2019-02-02T12:20:28.946Z,67.83
2019-02-02T12:21:28.905Z,69.45
2019-02-02T12:22:28.888Z,69.45
2019-02-02T12:23:28.877Z,69.64
2019-02-02T12:24:28.860Z,70.12
2019-02-02T12:25:28.850Z,69.83
2019-02-02T12:26:28.833Z,69.79
2019-02-02T12:27:28.823Z,70.21
2019-02-02T12:28:28.809Z,70.69
2019-02-02T12:29:28.796Z,71.55
2019-02-02T12:30:28.783Z,69.87
2019-02-02T12:31:28.772Z,69.01
2019-02-02T12:32:28.756Z,69.20
2019-02-02T12:33:28.761Z,68.53
2019-02-02T12:34:28.734Z,67.77
2019-02-02T12:35:28.726Z,67.77
2019-02-02T12:36:28.710Z,68.09
2019-02-02T12:37:28.695Z,67.61
2019-02-02T12:38:28.689Z,68.09
2019-02-02T12:39:28.673Z,67.61
2019-02-02T12:40:28.658Z,67.52
2019-02-02T12:41:28.651Z,66.66
2019-02-02T12:42:28.631Z,66.47
2019-02-02T12:43:28.623Z,67.04
2019-02-02T12:44:28.611Z,66.56
2019-02-02T12:45:28.593Z,65.52
2019-02-02T12:46:28.582Z,66.18
2019-02-02T12:47:28.572Z,66.85
2019-02-02T12:48:28.564Z,67.04
2019-02-02T12:49:28.549Z,66.78
2019-02-02T12:50:28.538Z,66.88
2019-02-02T12:51:28.521Z,67.21
2019-02-02T12:52:28.516Z,65.30